sensor_id;sensor_type;location;lat;lon;timestamp;pressure;altitude;pressure_sealevel;temperature;humidity
65276;BME280;51875;49.994;14.052;2024-01-30T00:00:19;100047.31;;;-1.80;100.00
65276;BME280;51875;49.994;14.052;2024-01-30T00:01:35;100053.13;;;-1.47;100.00
65276;BME280;51875;49.994;14.052;2024-01-30T00:02:54;100043.63;;;-1.67;100.00
65276;BME280;51875;49.994;14.052;2024-01-30T00:04:13;100049.69;;;-1.83;100.00
65276;BME280;51875;49.994;14.052;2024-01-30T00:05:29;100044.06;;;-1.76;100.00
65276;BME280;51875;49.994;14.052;2024-01-30T00:06:47;100051.16;;;-2.07;100.00
65276;BME280;51875;49.994;14.052;2024-01-30T00:08:05;100049.47;;;-1.70;100.00
65276;BME280;51875;49.994;14.052;2024-01-30T00:09:21;100048.91;;;-2.01;100.00
65276;BME280;51875;49.994;14.052;2024-01-30T00:10:37;100047.34;;;-1.97;100.00
65276;BME280;51875;49.994;14.052;2024-01-30T00:11:53;100049.59;;;-2.21;100.00
65276;BME280;51875;49.994;14.052;2024-01-30T00:13:09;100046.53;;;-1.96;100.00
65276;BME280;51875;49.994;14.052;2024-01-30T00:14:25;100046.13;;;-2.05;100.00
65276;BME280;51875;49.994;14.052;2024-01-30T00:15:41;100053.06;;;-2.21;100.00
65276;BME280;51875;49.994;14.052;2024-01-30T00:16:57;100048.00;;;-2.01;100.00
65276;BME280;51875;49.994;14.052;2024-01-30T00:18:13;100052.06;;;-1.88;100.00
65276;BME280;51875;49.994;14.052;2024-01-30T00:19:29;100049.28;;;-1.93;100.00
65276;BME280;51875;49.994;14.052;2024-01-30T00:20:45;100048.75;;;-1.86;100.00
65276;BME280;51875;49.994;14.052;2024-01-30T00:22:01;100046.41;;;-1.63;100.00
65276;BME280;51875;49.994;14.052;2024-01-30T00:23:17;100054.91;;;-1.82;100.00
65276;BME280;51875;49.994;14.052;2024-01-30T00:24:33;100061.00;;;-1.98;100.00
65276;BME280;51875;49.994;14.052;2024-01-30T00:25:50;100049.41;;;-1.90;100.00
65276;BME280;51875;49.994;14.052;2024-01-30T00:27:07;100052.25;;;-1.47;100.00
65276;BME280;51875;49.994;14.052;2024-01-30T00:28:23;100043.50;;;-1.33;100.00
65276;BME280;51875;49.994;14.052;2024-01-30T00:29:39;100042.25;;;-1.41;100.00
65276;BME280;51875;49.994;14.052;2024-01-30T00:30:55;100045.38;;;-1.85;100.00
65276;BME280;51875;49.994;14.052;2024-01-30T00:32:11;100041.38;;;-1.79;100.00
65276;BME280;51875;49.994;14.052;2024-01-30T00:33:27;100042.31;;;-1.77;100.00
65276;BME280;51875;49.994;14.052;2024-01-30T00:34:43;100046.28;;;-1.84;100.00
65276;BME280;51875;49.994;14.052;2024-01-30T00:35:59;100040.97;;;-1.69;100.00
65276;BME280;51875;49.994;14.052;2024-01-30T00:37:15;100048.16;;;-1.62;100.00
65276;BME280;51875;49.994;14.052;2024-01-30T00:38:31;100044.28;;;-1.90;100.00
65276;BME280;51875;49.994;14.052;2024-01-30T00:39:47;100043.69;;;-2.02;100.00
65276;BME280;51875;49.994;14.052;2024-01-30T00:41:05;100046.22;;;-2.20;100.00
65276;BME280;51875;49.994;14.052;2024-01-30T00:42:21;100044.31;;;-2.24;100.00
65276;BME280;51875;49.994;14.052;2024-01-30T00:43:39;100038.69;;;-1.99;100.00
65276;BME280;51875;49.994;14.052;2024-01-30T00:44:55;100037.66;;;-2.21;100.00
65276;BME280;51875;49.994;14.052;2024-01-30T00:46:11;100031.94;;;-2.33;100.00
65276;BME280;51875;49.994;14.052;2024-01-30T00:47:30;100040.28;;;-2.19;100.00
65276;BME280;51875;49.994;14.052;2024-01-30T00:48:48;100033.72;;;-2.49;100.00
65276;BME280;51875;49.994;14.052;2024-01-30T00:50:05;100037.06;;;-2.33;100.00
65276;BME280;51875;49.994;14.052;2024-01-30T00:51:21;100030.56;;;-2.08;100.00
65276;BME280;51875;49.994;14.052;2024-01-30T00:52:37;100025.72;;;-2.02;100.00
65276;BME280;51875;49.994;14.052;2024-01-30T00:53:54;100036.19;;;-2.16;100.00
65276;BME280;51875;49.994;14.052;2024-01-30T00:55:11;100032.59;;;-2.19;100.00
65276;BME280;51875;49.994;14.052;2024-01-30T00:56:27;100036.44;;;-1.93;100.00
65276;BME280;51875;49.994;14.052;2024-01-30T00:57:43;100024.84;;;-1.85;100.00
65276;BME280;51875;49.994;14.052;2024-01-30T00:58:59;100036.28;;;-1.96;100.00
65276;BME280;51875;49.994;14.052;2024-01-30T01:00:15;100029.97;;;-1.85;100.00
65276;BME280;51875;49.994;14.052;2024-01-30T01:01:35;100029.88;;;-1.68;100.00
65276;BME280;51875;49.994;14.052;2024-01-30T01:02:52;100029.97;;;-1.66;100.00
65276;BME280;51875;49.994;14.052;2024-01-30T01:04:08;100031.22;;;-1.58;100.00
65276;BME280;51875;49.994;14.052;2024-01-30T01:05:24;100029.06;;;-1.49;100.00
65276;BME280;51875;49.994;14.052;2024-01-30T01:06:40;100032.41;;;-1.32;100.00
65276;BME280;51875;49.994;14.052;2024-01-30T01:07:59;100034.38;;;-1.64;100.00
65276;BME280;51875;49.994;14.052;2024-01-30T01:09:15;100034.63;;;-1.39;100.00
65276;BME280;51875;49.994;14.052;2024-01-30T01:10:31;100035.28;;;-1.25;100.00
65276;BME280;51875;49.994;14.052;2024-01-30T01:11:47;100025.66;;;-1.30;100.00
65276;BME280;51875;49.994;14.052;2024-01-30T01:13:03;100027.28;;;-1.12;100.00
65276;BME280;51875;49.994;14.052;2024-01-30T01:14:19;100027.25;;;-1.51;100.00
65276;BME280;51875;49.994;14.052;2024-01-30T01:15:35;100024.63;;;-1.71;100.00
65276;BME280;51875;49.994;14.052;2024-01-30T01:16:51;100027.16;;;-1.53;100.00
65276;BME280;51875;49.994;14.052;2024-01-30T01:18:07;100030.16;;;-1.81;100.00
65276;BME280;51875;49.994;14.052;2024-01-30T01:19:23;100028.06;;;-1.89;100.00
65276;BME280;51875;49.994;14.052;2024-01-30T01:20:40;100033.06;;;-1.74;100.00
65276;BME280;51875;49.994;14.052;2024-01-30T01:21:56;100032.47;;;-1.86;100.00
65276;BME280;51875;49.994;14.052;2024-01-30T01:23:12;100034.97;;;-1.88;100.00
65276;BME280;51875;49.994;14.052;2024-01-30T01:24:27;100033.63;;;-1.61;100.00
65276;BME280;51875;49.994;14.052;2024-01-30T01:25:43;100033.66;;;-1.97;100.00
65276;BME280;51875;49.994;14.052;2024-01-30T01:26:59;100031.22;;;-1.94;100.00
65276;BME280;51875;49.994;14.052;2024-01-30T01:28:16;100034.38;;;-1.82;100.00
65276;BME280;51875;49.994;14.052;2024-01-30T01:29:32;100027.25;;;-2.06;100.00
65276;BME280;51875;49.994;14.052;2024-01-30T01:30:48;100026.75;;;-1.99;100.00
65276;BME280;51875;49.994;14.052;2024-01-30T01:32:05;100024.84;;;-1.85;100.00
65276;BME280;51875;49.994;14.052;2024-01-30T01:33:21;100023.22;;;-1.82;100.00
65276;BME280;51875;49.994;14.052;2024-01-30T01:34:37;100024.84;;;-1.85;100.00
65276;BME280;51875;49.994;14.052;2024-01-30T01:35:53;100024.84;;;-1.85;100.00
65276;BME280;51875;49.994;14.052;2024-01-30T01:37:09;100015.97;;;-1.73;100.00
65276;BME280;51875;49.994;14.052;2024-01-30T01:38:25;100020.09;;;-1.95;100.00
65276;BME280;51875;49.994;14.052;2024-01-30T01:39:41;100024.09;;;-2.00;100.00
65276;BME280;51875;49.994;14.052;2024-01-30T01:40:57;100028.28;;;-2.02;100.00
65276;BME280;51875;49.994;14.052;2024-01-30T01:42:13;100033.25;;;-2.23;100.00
65276;BME280;51875;49.994;14.052;2024-01-30T01:43:29;100035.34;;;-2.33;100.00
65276;BME280;51875;49.994;14.052;2024-01-30T01:44:45;100035.72;;;-2.08;100.00
65276;BME280;51875;49.994;14.052;2024-01-30T01:46:02;100030.06;;;-1.83;100.00
65276;BME280;51875;49.994;14.052;2024-01-30T01:47:18;100035.28;;;-1.81;100.00
65276;BME280;51875;49.994;14.052;2024-01-30T01:48:34;100034.50;;;-1.97;100.00
65276;BME280;51875;49.994;14.052;2024-01-30T01:49:51;100034.09;;;-2.06;100.00
65276;BME280;51875;49.994;14.052;2024-01-30T01:51:08;100034.53;;;-2.15;100.00
65276;BME280;51875;49.994;14.052;2024-01-30T01:52:24;100024.41;;;-2.12;100.00
65276;BME280;51875;49.994;14.052;2024-01-30T01:53:41;100038.75;;;-2.16;100.00
65276;BME280;51875;49.994;14.052;2024-01-30T01:54:57;100039.06;;;-2.28;100.00
65276;BME280;51875;49.994;14.052;2024-01-30T01:56:14;100034.50;;;-2.33;100.00
65276;BME280;51875;49.994;14.052;2024-01-30T01:57:31;100033.63;;;-2.16;100.00
65276;BME280;51875;49.994;14.052;2024-01-30T01:58:47;100031.50;;;-2.24;100.00
65276;BME280;51875;49.994;14.052;2024-01-30T02:00:06;100033.13;;;-2.08;100.00
65276;BME280;51875;49.994;14.052;2024-01-30T02:01:23;100029.75;;;-2.25;100.00
65276;BME280;51875;49.994;14.052;2024-01-30T02:02:41;100016.75;;;-2.10;100.00
65276;BME280;51875;49.994;14.052;2024-01-30T02:03:58;100028.00;;;-2.08;100.00
65276;BME280;51875;49.994;14.052;2024-01-30T02:05:15;100016.97;;;-2.24;100.00
65276;BME280;51875;49.994;14.052;2024-01-30T02:06:32;100016.84;;;-2.09;100.00
65276;BME280;51875;49.994;14.052;2024-01-30T02:07:50;100013.47;;;-2.08;100.00
65276;BME280;51875;49.994;14.052;2024-01-30T02:09:06;100017.94;;;-2.22;100.00
65276;BME280;51875;49.994;14.052;2024-01-30T02:10:22;100013.53;;;-2.24;100.00
65276;BME280;51875;49.994;14.052;2024-01-30T02:11:39;100015.19;;;-2.08;100.00
65276;BME280;51875;49.994;14.052;2024-01-30T02:12:56;100016.19;;;-2.23;100.00
65276;BME280;51875;49.994;14.052;2024-01-30T02:14:12;100011.19;;;-1.83;100.00
65276;BME280;51875;49.994;14.052;2024-01-30T02:15:28;100003.88;;;-1.94;100.00
65276;BME280;51875;49.994;14.052;2024-01-30T02:16:45;100009.03;;;-1.94;100.00
65276;BME280;51875;49.994;14.052;2024-01-30T02:18:01;100001.63;;;-1.68;100.00
65276;BME280;51875;49.994;14.052;2024-01-30T02:19:17;99999.38;;;-1.62;100.00
65276;BME280;51875;49.994;14.052;2024-01-30T02:20:34;100004.94;;;-1.52;100.00
65276;BME280;51875;49.994;14.052;2024-01-30T02:21:51;100007.88;;;-1.63;100.00
65276;BME280;51875;49.994;14.052;2024-01-30T02:23:09;100003.09;;;-1.55;100.00
65276;BME280;51875;49.994;14.052;2024-01-30T02:24:26;100013.59;;;-1.50;100.00
65276;BME280;51875;49.994;14.052;2024-01-30T02:25:42;100013.66;;;-1.49;100.00
65276;BME280;51875;49.994;14.052;2024-01-30T02:27:01;100015.16;;;-1.72;100.00
65276;BME280;51875;49.994;14.052;2024-01-30T02:28:17;100010.81;;;-1.73;100.00
65276;BME280;51875;49.994;14.052;2024-01-30T02:29:33;100011.28;;;-1.82;100.00
65276;BME280;51875;49.994;14.052;2024-01-30T02:30:49;99999.38;;;-1.62;100.00
65276;BME280;51875;49.994;14.052;2024-01-30T02:32:05;100002.03;;;-1.60;100.00
65276;BME280;51875;49.994;14.052;2024-01-30T02:33:21;100005.59;;;-1.57;100.00
65276;BME280;51875;49.994;14.052;2024-01-30T02:34:38;100015.47;;;-1.66;100.00
65276;BME280;51875;49.994;14.052;2024-01-30T02:35:54;100007.97;;;-1.79;100.00
65276;BME280;51875;49.994;14.052;2024-01-30T02:37:10;100011.56;;;-1.76;100.00
65276;BME280;51875;49.994;14.052;2024-01-30T02:38:27;100010.94;;;-1.52;100.00
65276;BME280;51875;49.994;14.052;2024-01-30T02:39:43;100009.91;;;-1.56;100.00
65276;BME280;51875;49.994;14.052;2024-01-30T02:40:59;100011.88;;;-1.50;100.00
65276;BME280;51875;49.994;14.052;2024-01-30T02:42:15;100010.31;;;-1.84;100.00
65276;BME280;51875;49.994;14.052;2024-01-30T02:43:31;100009.28;;;-1.88;100.00
65276;BME280;51875;49.994;14.052;2024-01-30T02:44:47;100013.25;;;-1.76;100.00
65276;BME280;51875;49.994;14.052;2024-01-30T02:46:03;100003.94;;;-1.92;100.00
65276;BME280;51875;49.994;14.052;2024-01-30T02:47:19;100012.34;;;-1.77;100.00
65276;BME280;51875;49.994;14.052;2024-01-30T02:48:35;100004.47;;;-1.81;100.00
65276;BME280;51875;49.994;14.052;2024-01-30T02:49:51;100001.81;;;-1.65;100.00
65276;BME280;51875;49.994;14.052;2024-01-30T02:51:07;100001.00;;;-1.64;100.00
65276;BME280;51875;49.994;14.052;2024-01-30T02:52:23;100004.66;;;-1.77;100.00
65276;BME280;51875;49.994;14.052;2024-01-30T02:53:39;100003.94;;;-2.10;100.00
65276;BME280;51875;49.994;14.052;2024-01-30T02:54:55;100009.38;;;-2.04;100.00
65276;BME280;51875;49.994;14.052;2024-01-30T02:56:11;100009.41;;;-2.39;100.00
65276;BME280;51875;49.994;14.052;2024-01-30T02:57:29;100007.03;;;-2.52;100.00
65276;BME280;51875;49.994;14.052;2024-01-30T02:58:45;100012.06;;;-2.54;100.00
65276;BME280;51875;49.994;14.052;2024-01-30T03:00:02;100006.47;;;-2.47;100.00
65276;BME280;51875;49.994;14.052;2024-01-30T03:01:19;100009.50;;;-2.72;100.00
65276;BME280;51875;49.994;14.052;2024-01-30T03:02:36;100010.97;;;-2.59;100.00
65276;BME280;51875;49.994;14.052;2024-01-30T03:03:52;100007.50;;;-2.78;100.00
65276;BME280;51875;49.994;14.052;2024-01-30T03:05:09;100009.06;;;-2.80;100.00
65276;BME280;51875;49.994;14.052;2024-01-30T03:06:24;100009.66;;;-2.86;100.00
65276;BME280;51875;49.994;14.052;2024-01-30T03:07:41;100007.88;;;-2.87;100.00
65276;BME280;51875;49.994;14.052;2024-01-30T03:08:57;100003.75;;;-2.66;100.00
65276;BME280;51875;49.994;14.052;2024-01-30T03:10:13;100000.09;;;-2.72;100.00
65276;BME280;51875;49.994;14.052;2024-01-30T03:11:29;100006.34;;;-2.83;100.00
65276;BME280;51875;49.994;14.052;2024-01-30T03:12:45;99998.81;;;-2.80;100.00
65276;BME280;51875;49.994;14.052;2024-01-30T03:14:01;99990.19;;;-2.47;100.00
65276;BME280;51875;49.994;14.052;2024-01-30T03:15:18;99998.88;;;-2.27;100.00
65276;BME280;51875;49.994;14.052;2024-01-30T03:16:33;99992.84;;;-1.91;100.00
65276;BME280;51875;49.994;14.052;2024-01-30T03:17:51;99991.84;;;-1.95;100.00
65276;BME280;51875;49.994;14.052;2024-01-30T03:19:07;99988.47;;;-1.94;100.00
65276;BME280;51875;49.994;14.052;2024-01-30T03:20:24;99978.50;;;-2.06;100.00
65276;BME280;51875;49.994;14.052;2024-01-30T03:21:40;99983.59;;;-2.24;100.00
65276;BME280;51875;49.994;14.052;2024-01-30T03:22:57;99989.72;;;-2.22;100.00
65276;BME280;51875;49.994;14.052;2024-01-30T03:24:13;99981.16;;;-2.04;100.00
65276;BME280;51875;49.994;14.052;2024-01-30T03:25:29;99985.78;;;-2.15;100.00
65276;BME280;51875;49.994;14.052;2024-01-30T03:26:45;99989.03;;;-2.36;100.00
65276;BME280;51875;49.994;14.052;2024-01-30T03:28:01;99988.38;;;-2.66;100.00
65276;BME280;51875;49.994;14.052;2024-01-30T03:29:17;99993.25;;;-2.54;100.00
65276;BME280;51875;49.994;14.052;2024-01-30T03:30:34;99989.69;;;-2.40;100.00
65276;BME280;51875;49.994;14.052;2024-01-30T03:31:50;99992.25;;;-2.75;100.00
65276;BME280;51875;49.994;14.052;2024-01-30T03:33:06;99984.09;;;-2.49;100.00
65276;BME280;51875;49.994;14.052;2024-01-30T03:34:22;99986.09;;;-2.44;100.00
65276;BME280;51875;49.994;14.052;2024-01-30T03:35:38;99979.91;;;-2.65;100.00
65276;BME280;51875;49.994;14.052;2024-01-30T03:36:54;99981.69;;;-2.64;100.00
65276;BME280;51875;49.994;14.052;2024-01-30T03:38:10;99981.53;;;-2.49;100.00
65276;BME280;51875;49.994;14.052;2024-01-30T03:39:26;99982.31;;;-2.68;100.00
65276;BME280;51875;49.994;14.052;2024-01-30T03:40:42;99978.41;;;-2.44;100.00
65276;BME280;51875;49.994;14.052;2024-01-30T03:41:58;99979.25;;;-2.61;100.00
65276;BME280;51875;49.994;14.052;2024-01-30T03:43:14;99975.53;;;-2.50;100.00
65276;BME280;51875;49.994;14.052;2024-01-30T03:44:30;99981.28;;;-2.37;100.00
65276;BME280;51875;49.994;14.052;2024-01-30T03:45:46;99978.03;;;-2.51;100.00
65276;BME280;51875;49.994;14.052;2024-01-30T03:47:02;99977.84;;;-2.20;100.00
65276;BME280;51875;49.994;14.052;2024-01-30T03:48:19;99977.41;;;-2.64;100.00
65276;BME280;51875;49.994;14.052;2024-01-30T03:49:35;99980.69;;;-2.50;100.00
65276;BME280;51875;49.994;14.052;2024-01-30T03:50:52;99979.75;;;-2.68;100.00
65276;BME280;51875;49.994;14.052;2024-01-30T03:52:08;99982.31;;;-2.68;100.00
65276;BME280;51875;49.994;14.052;2024-01-30T03:53:24;99988.13;;;-2.89;100.00
65276;BME280;51875;49.994;14.052;2024-01-30T03:54:40;99981.94;;;-2.93;100.00
65276;BME280;51875;49.994;14.052;2024-01-30T03:55:56;99981.25;;;-3.07;100.00
65276;BME280;51875;49.994;14.052;2024-01-30T03:57:12;99981.63;;;-2.82;100.00
65276;BME280;51875;49.994;14.052;2024-01-30T03:58:28;99975.41;;;-3.21;100.00
65276;BME280;51875;49.994;14.052;2024-01-30T03:59:44;99975.13;;;-3.09;100.00
65276;BME280;51875;49.994;14.052;2024-01-30T04:01:00;99974.16;;;-2.94;100.00
65276;BME280;51875;49.994;14.052;2024-01-30T04:02:16;99967.66;;;-2.71;100.00
65276;BME280;51875;49.994;14.052;2024-01-30T04:03:33;99980.53;;;-2.70;100.00
65276;BME280;51875;49.994;14.052;2024-01-30T04:04:49;99972.41;;;-2.79;100.00
65276;BME280;51875;49.994;14.052;2024-01-30T04:06:06;99977.53;;;-2.79;100.00
65276;BME280;51875;49.994;14.052;2024-01-30T04:07:22;99981.13;;;-2.75;100.00
65276;BME280;51875;49.994;14.052;2024-01-30T04:08:38;99980.44;;;-2.54;100.00
65276;BME280;51875;49.994;14.052;2024-01-30T04:09:54;99980.09;;;-2.44;100.00
65276;BME280;51875;49.994;14.052;2024-01-30T04:11:10;99978.69;;;-2.56;100.00
65276;BME280;51875;49.994;14.052;2024-01-30T04:12:26;99981.31;;;-2.54;100.00
65276;BME280;51875;49.994;14.052;2024-01-30T04:13:42;99978.72;;;-2.72;100.00
65276;BME280;51875;49.994;14.052;2024-01-30T04:14:59;99985.84;;;-2.83;100.00
65276;BME280;51875;49.994;14.052;2024-01-30T04:16:21;99984.75;;;-2.88;100.00
65276;BME280;51875;49.994;14.052;2024-01-30T04:17:38;99981.19;;;-2.74;100.00
65276;BME280;51875;49.994;14.052;2024-01-30T04:18:54;99975.31;;;-2.54;100.00
65276;BME280;51875;49.994;14.052;2024-01-30T04:20:16;99980.63;;;-2.33;100.00
65276;BME280;51875;49.994;14.052;2024-01-30T04:21:32;99973.97;;;-2.30;100.00
65276;BME280;51875;49.994;14.052;2024-01-30T04:22:48;99985.66;;;-2.70;100.00
65276;BME280;51875;49.994;14.052;2024-01-30T04:24:04;99975.78;;;-2.96;100.00
65276;BME280;51875;49.994;14.052;2024-01-30T04:25:21;99977.31;;;-3.00;100.00
65276;BME280;51875;49.994;14.052;2024-01-30T04:26:37;99980.44;;;-2.89;100.00
65276;BME280;51875;49.994;14.052;2024-01-30T04:27:53;99982.13;;;-3.06;100.00
65276;BME280;51875;49.994;14.052;2024-01-30T04:29:09;99980.75;;;-3.00;100.00
65276;BME280;51875;49.994;14.052;2024-01-30T04:30:25;99981.00;;;-3.12;100.00
65276;BME280;51875;49.994;14.052;2024-01-30T04:31:41;99982.19;;;-2.88;100.00
65276;BME280;51875;49.994;14.052;2024-01-30T04:32:57;99984.50;;;-2.93;100.00
65276;BME280;51875;49.994;14.052;2024-01-30T04:34:13;99981.56;;;-3.01;100.00
65276;BME280;51875;49.994;14.052;2024-01-30T04:35:29;99986.59;;;-3.02;100.00
65276;BME280;51875;49.994;14.052;2024-01-30T04:36:45;99978.00;;;-2.86;100.00
65276;BME280;51875;49.994;14.052;2024-01-30T04:38:01;99982.97;;;-2.73;100.00
65276;BME280;51875;49.994;14.052;2024-01-30T04:39:17;99984.44;;;-2.78;100.00
65276;BME280;51875;49.994;14.052;2024-01-30T04:40:34;99984.00;;;-2.69;100.00
65276;BME280;51875;49.994;14.052;2024-01-30T04:41:50;99988.81;;;-2.75;100.00
65276;BME280;51875;49.994;14.052;2024-01-30T04:43:06;99989.81;;;-2.55;100.00
65276;BME280;51875;49.994;14.052;2024-01-30T04:44:22;99986.59;;;-2.86;100.00
65276;BME280;51875;49.994;14.052;2024-01-30T04:45:39;99988.00;;;-2.74;100.00
65276;BME280;51875;49.994;14.052;2024-01-30T04:46:55;99985.44;;;-2.74;100.00
65276;BME280;51875;49.994;14.052;2024-01-30T04:48:14;99980.09;;;-2.95;100.00
65276;BME280;51875;49.994;14.052;2024-01-30T04:49:30;99984.66;;;-2.90;100.00
65276;BME280;51875;49.994;14.052;2024-01-30T04:50:46;99987.81;;;-3.12;100.00
65276;BME280;51875;49.994;14.052;2024-01-30T04:52:02;99984.09;;;-2.84;100.00
65276;BME280;51875;49.994;14.052;2024-01-30T04:53:19;99988.53;;;-2.98;100.00
65276;BME280;51875;49.994;14.052;2024-01-30T04:54:35;99983.47;;;-2.96;100.00
65276;BME280;51875;49.994;14.052;2024-01-30T04:55:51;99996.25;;;-2.80;100.00
65276;BME280;51875;49.994;14.052;2024-01-30T04:57:07;99990.84;;;-2.86;100.00
65276;BME280;51875;49.994;14.052;2024-01-30T04:58:26;99995.88;;;-2.53;100.00
65276;BME280;51875;49.994;14.052;2024-01-30T04:59:43;99990.66;;;-2.38;100.00
65276;BME280;51875;49.994;14.052;2024-01-30T05:00:58;100001.19;;;-2.66;100.00
65276;BME280;51875;49.994;14.052;2024-01-30T05:02:15;99999.25;;;-2.54;100.00
65276;BME280;51875;49.994;14.052;2024-01-30T05:03:33;99996.53;;;-2.57;100.00
65276;BME280;51875;49.994;14.052;2024-01-30T05:04:50;99995.50;;;-2.61;100.00
65276;BME280;51875;49.994;14.052;2024-01-30T05:06:06;99996.25;;;-2.80;100.00
65276;BME280;51875;49.994;14.052;2024-01-30T05:07:22;100004.72;;;-2.99;100.00
65276;BME280;51875;49.994;14.052;2024-01-30T05:08:38;99998.81;;;-2.80;100.00
65276;BME280;51875;49.994;14.052;2024-01-30T05:09:54;99999.25;;;-2.72;100.00
65276;BME280;51875;49.994;14.052;2024-01-30T05:11:11;99999.44;;;-2.51;100.00
65276;BME280;51875;49.994;14.052;2024-01-30T05:12:27;99998.44;;;-2.36;100.00
65276;BME280;51875;49.994;14.052;2024-01-30T05:13:43;100000.34;;;-2.32;100.00
65276;BME280;51875;49.994;14.052;2024-01-30T05:14:59;99998.44;;;-2.18;100.00
65276;BME280;51875;49.994;14.052;2024-01-30T05:16:15;100000.53;;;-2.80;100.00
65276;BME280;51875;49.994;14.052;2024-01-30T05:17:32;99994.09;;;-2.89;100.00
65276;BME280;51875;49.994;14.052;2024-01-30T05:18:49;99992.56;;;-2.68;100.00
65276;BME280;51875;49.994;14.052;2024-01-30T05:20:05;99993.06;;;-2.76;100.00
65276;BME280;51875;49.994;14.052;2024-01-30T05:21:23;99993.25;;;-2.54;100.00
65276;BME280;51875;49.994;14.052;2024-01-30T05:22:39;99988.59;;;-2.96;100.00
65276;BME280;51875;49.994;14.052;2024-01-30T05:24:00;99991.41;;;-2.92;100.00
65276;BME280;51875;49.994;14.052;2024-01-30T05:25:16;99994.06;;;-3.07;100.00
65276;BME280;51875;49.994;14.052;2024-01-30T05:26:32;99999.53;;;-2.66;100.00
65276;BME280;51875;49.994;14.052;2024-01-30T05:27:48;99996.63;;;-2.90;100.00
65276;BME280;51875;49.994;14.052;2024-01-30T05:29:06;100000.13;;;-2.88;100.00
65276;BME280;51875;49.994;14.052;2024-01-30T05:30:22;99995.63;;;-2.76;100.00
65276;BME280;51875;49.994;14.052;2024-01-30T05:31:38;99997.25;;;-2.60;100.00
65276;BME280;51875;49.994;14.052;2024-01-30T05:32:55;99997.66;;;-2.52;100.00
65276;BME280;51875;49.994;14.052;2024-01-30T05:34:11;100000.81;;;-2.58;100.00
65276;BME280;51875;49.994;14.052;2024-01-30T05:35:27;99995.47;;;-2.79;100.00
65276;BME280;51875;49.994;14.052;2024-01-30T05:36:44;99997.25;;;-2.60;100.00
65276;BME280;51875;49.994;14.052;2024-01-30T05:38:00;99995.41;;;-2.46;100.00
65276;BME280;51875;49.994;14.052;2024-01-30T05:39:16;99995.69;;;-2.58;100.00
65276;BME280;51875;49.994;14.052;2024-01-30T05:40:32;99997.81;;;-3.00;100.00
65276;BME280;51875;49.994;14.052;2024-01-30T05:41:48;100001.09;;;-2.86;100.00
65276;BME280;51875;49.994;14.052;2024-01-30T05:43:04;99997.63;;;-2.70;100.00
65276;BME280;51875;49.994;14.052;2024-01-30T05:44:21;99994.50;;;-2.81;100.00
65276;BME280;51875;49.994;14.052;2024-01-30T05:45:37;99998.03;;;-2.79;100.00
65276;BME280;51875;49.994;14.052;2024-01-30T05:46:54;99987.47;;;-2.85;100.00
65276;BME280;51875;49.994;14.052;2024-01-30T05:48:11;99991.16;;;-2.96;100.00
65276;BME280;51875;49.994;14.052;2024-01-30T05:49:27;99998.22;;;-2.92;100.00
65276;BME280;51875;49.994;14.052;2024-01-30T05:50:44;99998.63;;;-2.85;100.00
65276;BME280;51875;49.994;14.052;2024-01-30T05:52:02;99990.53;;;-2.92;100.00
65276;BME280;51875;49.994;14.052;2024-01-30T05:53:19;99996.19;;;-2.81;100.00
65276;BME280;51875;49.994;14.052;2024-01-30T05:54:35;99992.28;;;-2.91;100.00
65276;BME280;51875;49.994;14.052;2024-01-30T05:55:51;99991.56;;;-3.22;100.00
65276;BME280;51875;49.994;14.052;2024-01-30T05:57:07;99990.69;;;-2.89;100.00
65276;BME280;51875;49.994;14.052;2024-01-30T05:58:25;99995.81;;;-2.89;100.00
65276;BME280;51875;49.994;14.052;2024-01-30T05:59:44;99989.63;;;-2.93;100.00
65276;BME280;51875;49.994;14.052;2024-01-30T06:01:01;99992.75;;;-2.82;100.00
65276;BME280;51875;49.994;14.052;2024-01-30T06:02:17;99990.41;;;-2.77;100.00
65276;BME280;51875;49.994;14.052;2024-01-30T06:03:33;99999.97;;;-2.75;100.00
65276;BME280;51875;49.994;14.052;2024-01-30T06:04:50;99988.13;;;-3.06;100.00
65276;BME280;51875;49.994;14.052;2024-01-30T06:06:07;99992.06;;;-2.96;100.00
65276;BME280;51875;49.994;14.052;2024-01-30T06:07:23;99996.28;;;-2.96;100.00
65276;BME280;51875;49.994;14.052;2024-01-30T06:08:40;99996.00;;;-2.68;100.00
65276;BME280;51875;49.994;14.052;2024-01-30T06:09:56;99995.31;;;-2.65;100.00
65276;BME280;51875;49.994;14.052;2024-01-30T06:11:12;99994.63;;;-2.61;100.00
65276;BME280;51875;49.994;14.052;2024-01-30T06:12:28;99991.47;;;-2.74;100.00
65276;BME280;51875;49.994;14.052;2024-01-30T06:13:44;99992.91;;;-2.79;100.00
65276;BME280;51875;49.994;14.052;2024-01-30T06:15:01;99994.81;;;-2.75;100.00
65276;BME280;51875;49.994;14.052;2024-01-30T06:16:17;99990.56;;;-2.74;100.00
65276;BME280;51875;49.994;14.052;2024-01-30T06:17:33;99987.97;;;-2.92;100.00
65276;BME280;51875;49.994;14.052;2024-01-30T06:18:49;99995.00;;;-3.38;100.00
65276;BME280;51875;49.994;14.052;2024-01-30T06:20:06;100000.47;;;-3.32;100.00
65276;BME280;51875;49.994;14.052;2024-01-30T06:21:23;100002.69;;;-2.88;100.00
65276;BME280;51875;49.994;14.052;2024-01-30T06:22:41;100005.38;;;-2.68;100.00
65276;BME280;51875;49.994;14.052;2024-01-30T06:23:57;100005.69;;;-2.62;100.00
65276;BME280;51875;49.994;14.052;2024-01-30T06:25:14;100002.09;;;-2.66;100.00
65276;BME280;51875;49.994;14.052;2024-01-30T06:26:30;100003.25;;;-2.94;100.00
65276;BME280;51875;49.994;14.052;2024-01-30T06:27:46;99996.34;;;-3.45;100.00
65276;BME280;51875;49.994;14.052;2024-01-30T06:29:02;100007.09;;;-3.67;100.00
65276;BME280;51875;49.994;14.052;2024-01-30T06:30:18;100003.72;;;-3.51;100.00
65276;BME280;51875;49.994;14.052;2024-01-30T06:31:40;99999.84;;;-3.59;100.00